sensor_id;sensor_type;location;lat;lon;timestamp;temperature;humidity
4461;DHT22;2243;48.812;9.232;2023-05-10T00:02:17;15.20;99.90
4461;DHT22;2243;48.812;9.232;2023-05-10T00:04:49;15.00;99.90
4461;DHT22;2243;48.812;9.232;2023-05-10T00:07:19;14.90;99.90
4461;DHT22;2243;48.812;9.232;2023-05-10T00:09:50;15.00;99.90
4461;DHT22;2243;48.812;9.232;2023-05-10T00:12:22;14.90;99.90
4461;DHT22;2243;48.812;9.232;2023-05-10T00:14:52;14.80;99.90
4461;DHT22;2243;48.812;9.232;2023-05-10T00:17:23;14.60;99.90
4461;DHT22;2243;48.812;9.232;2023-05-10T00:19:54;14.70;99.90
4461;DHT22;2243;48.812;9.232;2023-05-10T00:22:25;14.50;99.90
4461;DHT22;2243;48.812;9.232;2023-05-10T00:24:57;14.50;99.90
4461;DHT22;2243;48.812;9.232;2023-05-10T00:27:28;14.40;99.90
4461;DHT22;2243;48.812;9.232;2023-05-10T00:29:59;14.40;99.90
4461;DHT22;2243;48.812;9.232;2023-05-10T00:32:30;14.40;99.90
4461;DHT22;2243;48.812;9.232;2023-05-10T00:35:01;14.20;99.90
4461;DHT22;2243;48.812;9.232;2023-05-10T00:37:32;14.20;99.90
4461;DHT22;2243;48.812;9.232;2023-05-10T00:40:03;14.20;99.90
4461;DHT22;2243;48.812;9.232;2023-05-10T00:42:35;14.20;99.90
4461;DHT22;2243;48.812;9.232;2023-05-10T00:45:06;14.20;99.90
4461;DHT22;2243;48.812;9.232;2023-05-10T00:47:38;14.20;99.90
4461;DHT22;2243;48.812;9.232;2023-05-10T00:50:10;14.20;99.90
4461;DHT22;2243;48.812;9.232;2023-05-10T00:52:41;14.20;99.90
4461;DHT22;2243;48.812;9.232;2023-05-10T00:55:13;14.10;99.90
4461;DHT22;2243;48.812;9.232;2023-05-10T00:57:44;14.20;99.90
4461;DHT22;2243;48.812;9.232;2023-05-10T01:00:15;14.10;99.90
4461;DHT22;2243;48.812;9.232;2023-05-10T01:02:48;14.10;99.90
4461;DHT22;2243;48.812;9.232;2023-05-10T01:05:20;14.20;99.90
4461;DHT22;2243;48.812;9.232;2023-05-10T01:07:52;14.20;99.90
4461;DHT22;2243;48.812;9.232;2023-05-10T01:10:23;14.10;99.90
4461;DHT22;2243;48.812;9.232;2023-05-10T01:12:54;14.20;99.90
4461;DHT22;2243;48.812;9.232;2023-05-10T01:15:26;14.10;99.90
4461;DHT22;2243;48.812;9.232;2023-05-10T01:17:57;14.10;99.90
4461;DHT22;2243;48.812;9.232;2023-05-10T01:20:35;14.20;99.90
4461;DHT22;2243;48.812;9.232;2023-05-10T01:23:39;14.20;99.90
4461;DHT22;2243;48.812;9.232;2023-05-10T01:37:50;14.20;99.90
4461;DHT22;2243;48.812;9.232;2023-05-10T01:43:21;14.20;99.90
4461;DHT22;2243;48.812;9.232;2023-05-10T01:46:02;14.20;99.90
4461;DHT22;2243;48.812;9.232;2023-05-10T01:48:47;14.30;99.90
4461;DHT22;2243;48.812;9.232;2023-05-10T01:51:24;14.30;99.90
4461;DHT22;2243;48.812;9.232;2023-05-10T01:54:00;14.30;99.90
4461;DHT22;2243;48.812;9.232;2023-05-10T01:56:33;14.30;99.90
4461;DHT22;2243;48.812;9.232;2023-05-10T01:59:09;14.30;99.90
4461;DHT22;2243;48.812;9.232;2023-05-10T02:01:45;14.30;99.90
4461;DHT22;2243;48.812;9.232;2023-05-10T02:04:18;14.40;99.90
4461;DHT22;2243;48.812;9.232;2023-05-10T02:06:51;14.40;99.90
4461;DHT22;2243;48.812;9.232;2023-05-10T02:09:25;14.40;99.90
4461;DHT22;2243;48.812;9.232;2023-05-10T02:12:00;14.40;99.90
4461;DHT22;2243;48.812;9.232;2023-05-10T02:14:36;14.40;99.90
4461;DHT22;2243;48.812;9.232;2023-05-10T02:17:08;14.50;99.90
4461;DHT22;2243;48.812;9.232;2023-05-10T02:19:41;14.40;99.90
4461;DHT22;2243;48.812;9.232;2023-05-10T02:22:13;14.40;99.90
4461;DHT22;2243;48.812;9.232;2023-05-10T02:24:44;14.50;99.90
4461;DHT22;2243;48.812;9.232;2023-05-10T02:27:17;14.40;99.90
4461;DHT22;2243;48.812;9.232;2023-05-10T02:29:49;14.40;99.90
4461;DHT22;2243;48.812;9.232;2023-05-10T02:32:22;14.50;99.90
4461;DHT22;2243;48.812;9.232;2023-05-10T02:34:55;14.50;99.90
4461;DHT22;2243;48.812;9.232;2023-05-10T02:37:28;14.50;99.90
4461;DHT22;2243;48.812;9.232;2023-05-10T02:40:00;14.50;99.90
4461;DHT22;2243;48.812;9.232;2023-05-10T02:42:36;14.50;99.90
4461;DHT22;2243;48.812;9.232;2023-05-10T02:45:12;14.50;99.90
4461;DHT22;2243;48.812;9.232;2023-05-10T02:47:44;14.50;99.90
4461;DHT22;2243;48.812;9.232;2023-05-10T02:50:15;14.50;99.90
4461;DHT22;2243;48.812;9.232;2023-05-10T02:52:50;14.50;99.90
4461;DHT22;2243;48.812;9.232;2023-05-10T02:55:26;14.40;99.90
4461;DHT22;2243;48.812;9.232;2023-05-10T02:58:03;14.50;99.90
4461;DHT22;2243;48.812;9.232;2023-05-10T03:00:34;14.50;99.90
4461;DHT22;2243;48.812;9.232;2023-05-10T03:03:06;14.50;99.90
4461;DHT22;2243;48.812;9.232;2023-05-10T03:05:38;14.50;99.90
4461;DHT22;2243;48.812;9.232;2023-05-10T03:08:09;14.50;99.90
4461;DHT22;2243;48.812;9.232;2023-05-10T03:17:06;14.50;99.90
4461;DHT22;2243;48.812;9.232;2023-05-10T03:20:02;14.50;99.90
4461;DHT22;2243;48.812;9.232;2023-05-10T03:22:37;14.60;99.90
4461;DHT22;2243;48.812;9.232;2023-05-10T03:25:12;14.50;99.90
4461;DHT22;2243;48.812;9.232;2023-05-10T03:27:45;14.50;99.90
4461;DHT22;2243;48.812;9.232;2023-05-10T03:30:17;14.40;99.90
4461;DHT22;2243;48.812;9.232;2023-05-10T03:32:49;14.40;99.90
4461;DHT22;2243;48.812;9.232;2023-05-10T03:35:20;14.30;99.90
4461;DHT22;2243;48.812;9.232;2023-05-10T03:37:51;14.30;99.90
4461;DHT22;2243;48.812;9.232;2023-05-10T03:40:22;14.40;99.90
4461;DHT22;2243;48.812;9.232;2023-05-10T03:42:53;14.40;99.90
4461;DHT22;2243;48.812;9.232;2023-05-10T03:45:25;14.40;99.90
4461;DHT22;2243;48.812;9.232;2023-05-10T03:47:57;14.40;99.90
4461;DHT22;2243;48.812;9.232;2023-05-10T03:50:28;14.30;99.90
4461;DHT22;2243;48.812;9.232;2023-05-10T03:52:59;14.40;99.90
4461;DHT22;2243;48.812;9.232;2023-05-10T03:55:30;14.40;99.90
4461;DHT22;2243;48.812;9.232;2023-05-10T03:58:05;14.50;99.90
4461;DHT22;2243;48.812;9.232;2023-05-10T04:00:35;14.50;99.90
4461;DHT22;2243;48.812;9.232;2023-05-10T04:03:07;14.40;99.90
4461;DHT22;2243;48.812;9.232;2023-05-10T04:05:38;14.40;99.90
4461;DHT22;2243;48.812;9.232;2023-05-10T04:08:10;14.50;99.90
4461;DHT22;2243;48.812;9.232;2023-05-10T04:10:41;14.40;99.90
4461;DHT22;2243;48.812;9.232;2023-05-10T04:13:12;14.40;99.90
4461;DHT22;2243;48.812;9.232;2023-05-10T04:15:43;14.40;99.90
4461;DHT22;2243;48.812;9.232;2023-05-10T04:18:14;14.50;99.90
4461;DHT22;2243;48.812;9.232;2023-05-10T04:20:45;14.60;99.90
4461;DHT22;2243;48.812;9.232;2023-05-10T04:23:16;14.60;99.90
4461;DHT22;2243;48.812;9.232;2023-05-10T04:25:47;14.60;99.90
4461;DHT22;2243;48.812;9.232;2023-05-10T04:28:18;14.60;99.90
4461;DHT22;2243;48.812;9.232;2023-05-10T04:30:49;14.60;99.90
4461;DHT22;2243;48.812;9.232;2023-05-10T04:33:20;14.60;99.90
4461;DHT22;2243;48.812;9.232;2023-05-10T04:35:51;14.60;99.90
4461;DHT22;2243;48.812;9.232;2023-05-10T04:38:22;14.60;99.90
4461;DHT22;2243;48.812;9.232;2023-05-10T04:40:53;14.60;99.90
4461;DHT22;2243;48.812;9.232;2023-05-10T04:43:24;14.70;99.90
4461;DHT22;2243;48.812;9.232;2023-05-10T04:45:56;14.80;99.90
4461;DHT22;2243;48.812;9.232;2023-05-10T04:48:28;14.80;99.90
4461;DHT22;2243;48.812;9.232;2023-05-10T04:50:59;14.70;99.90
4461;DHT22;2243;48.812;9.232;2023-05-10T04:53:30;14.80;99.90
4461;DHT22;2243;48.812;9.232;2023-05-10T04:56:01;14.80;99.90
4461;DHT22;2243;48.812;9.232;2023-05-10T04:58:32;14.80;99.90
4461;DHT22;2243;48.812;9.232;2023-05-10T05:01:07;14.80;99.90
4461;DHT22;2243;48.812;9.232;2023-05-10T05:03:39;14.80;99.90
4461;DHT22;2243;48.812;9.232;2023-05-10T05:06:11;14.80;99.90
4461;DHT22;2243;48.812;9.232;2023-05-10T05:08:42;14.80;99.90
4461;DHT22;2243;48.812;9.232;2023-05-10T05:11:13;14.80;99.90
4461;DHT22;2243;48.812;9.232;2023-05-10T05:13:44;14.80;99.90
4461;DHT22;2243;48.812;9.232;2023-05-10T05:16:15;14.80;99.90
4461;DHT22;2243;48.812;9.232;2023-05-10T05:18:46;14.90;99.90
4461;DHT22;2243;48.812;9.232;2023-05-10T05:21:18;14.90;99.90
4461;DHT22;2243;48.812;9.232;2023-05-10T05:23:50;14.90;99.90
4461;DHT22;2243;48.812;9.232;2023-05-10T05:26:21;14.90;99.90
4461;DHT22;2243;48.812;9.232;2023-05-10T05:28:51;15.00;99.90
4461;DHT22;2243;48.812;9.232;2023-05-10T05:31:25;15.00;99.90
4461;DHT22;2243;48.812;9.232;2023-05-10T05:33:56;15.00;99.90
4461;DHT22;2243;48.812;9.232;2023-05-10T05:36:27;15.10;99.90
4461;DHT22;2243;48.812;9.232;2023-05-10T05:38:58;15.10;99.90
4461;DHT22;2243;48.812;9.232;2023-05-10T05:41:29;15.00;99.90
4461;DHT22;2243;48.812;9.232;2023-05-10T05:44:00;15.00;99.90
4461;DHT22;2243;48.812;9.232;2023-05-10T05:46:31;15.00;99.90
4461;DHT22;2243;48.812;9.232;2023-05-10T05:49:01;15.10;99.90
4461;DHT22;2243;48.812;9.232;2023-05-10T05:51:32;15.20;99.90
4461;DHT22;2243;48.812;9.232;2023-05-10T05:54:05;15.20;99.90
4461;DHT22;2243;48.812;9.232;2023-05-10T05:56:36;15.30;99.90
4461;DHT22;2243;48.812;9.232;2023-05-10T05:59:08;15.20;99.90
4461;DHT22;2243;48.812;9.232;2023-05-10T06:01:39;15.10;99.90
4461;DHT22;2243;48.812;9.232;2023-05-10T06:04:10;15.20;99.90
4461;DHT22;2243;48.812;9.232;2023-05-10T06:06:41;15.10;99.90
4461;DHT22;2243;48.812;9.232;2023-05-10T06:09:12;15.00;99.90
4461;DHT22;2243;48.812;9.232;2023-05-10T06:11:43;15.20;99.90
4461;DHT22;2243;48.812;9.232;2023-05-10T06:14:14;15.30;99.90
4461;DHT22;2243;48.812;9.232;2023-05-10T06:16:45;15.20;99.90
4461;DHT22;2243;48.812;9.232;2023-05-10T06:19:17;15.30;99.90
4461;DHT22;2243;48.812;9.232;2023-05-10T06:21:48;15.30;99.90
4461;DHT22;2243;48.812;9.232;2023-05-10T06:24:20;15.40;99.90
4461;DHT22;2243;48.812;9.232;2023-05-10T06:26:51;15.40;99.90
4461;DHT22;2243;48.812;9.232;2023-05-10T06:29:22;15.40;99.90
4461;DHT22;2243;48.812;9.232;2023-05-10T06:31:53;15.40;99.90
4461;DHT22;2243;48.812;9.232;2023-05-10T06:34:25;15.50;99.90
4461;DHT22;2243;48.812;9.232;2023-05-10T06:36:56;15.40;99.90
4461;DHT22;2243;48.812;9.232;2023-05-10T06:39:27;15.40;99.90
4461;DHT22;2243;48.812;9.232;2023-05-10T06:41:59;15.30;99.90
4461;DHT22;2243;48.812;9.232;2023-05-10T06:44:31;15.30;99.90
4461;DHT22;2243;48.812;9.232;2023-05-10T06:47:02;15.30;99.90
4461;DHT22;2243;48.812;9.232;2023-05-10T06:49:33;15.30;99.90
4461;DHT22;2243;48.812;9.232;2023-05-10T06:52:04;15.40;99.90
4461;DHT22;2243;48.812;9.232;2023-05-10T06:54:35;15.50;99.90
4461;DHT22;2243;48.812;9.232;2023-05-10T06:57:06;15.50;99.90
4461;DHT22;2243;48.812;9.232;2023-05-10T06:59:49;15.50;99.90
4461;DHT22;2243;48.812;9.232;2023-05-10T07:02:20;15.60;99.90
4461;DHT22;2243;48.812;9.232;2023-05-10T07:04:51;15.60;99.90
4461;DHT22;2243;48.812;9.232;2023-05-10T07:07:22;15.50;99.90
4461;DHT22;2243;48.812;9.232;2023-05-10T07:09:53;15.50;99.90
4461;DHT22;2243;48.812;9.232;2023-05-10T07:12:24;15.50;99.90
4461;DHT22;2243;48.812;9.232;2023-05-10T07:14:56;15.40;99.90
4461;DHT22;2243;48.812;9.232;2023-05-10T07:17:27;15.60;99.90
4461;DHT22;2243;48.812;9.232;2023-05-10T07:19:58;15.60;99.90
4461;DHT22;2243;48.812;9.232;2023-05-10T07:22:29;15.60;99.90
4461;DHT22;2243;48.812;9.232;2023-05-10T07:25:00;15.60;99.90
4461;DHT22;2243;48.812;9.232;2023-05-10T07:27:31;15.60;99.90
4461;DHT22;2243;48.812;9.232;2023-05-10T07:30:03;15.50;99.90
4461;DHT22;2243;48.812;9.232;2023-05-10T07:32:34;15.60;99.90
4461;DHT22;2243;48.812;9.232;2023-05-10T07:35:05;15.70;99.90
4461;DHT22;2243;48.812;9.232;2023-05-10T07:37:37;15.60;99.90
4461;DHT22;2243;48.812;9.232;2023-05-10T07:40:08;15.70;99.90
4461;DHT22;2243;48.812;9.232;2023-05-10T07:42:40;15.70;99.90
4461;DHT22;2243;48.812;9.232;2023-05-10T07:45:10;15.80;99.90
4461;DHT22;2243;48.812;9.232;2023-05-10T07:47:41;16.00;99.90
4461;DHT22;2243;48.812;9.232;2023-05-10T07:50:12;16.10;99.90
4461;DHT22;2243;48.812;9.232;2023-05-10T07:52:43;16.10;99.90
4461;DHT22;2243;48.812;9.232;2023-05-10T07:55:14;16.10;99.90
4461;DHT22;2243;48.812;9.232;2023-05-10T07:57:46;16.10;99.90
4461;DHT22;2243;48.812;9.232;2023-05-10T08:00:18;16.10;99.90
4461;DHT22;2243;48.812;9.232;2023-05-10T08:02:50;16.10;99.90
4461;DHT22;2243;48.812;9.232;2023-05-10T08:05:21;16.20;99.90
4461;DHT22;2243;48.812;9.232;2023-05-10T08:07:52;16.20;99.90
4461;DHT22;2243;48.812;9.232;2023-05-10T08:10:24;16.20;99.90
4461;DHT22;2243;48.812;9.232;2023-05-10T08:12:55;16.10;99.90
4461;DHT22;2243;48.812;9.232;2023-05-10T08:15:26;16.00;99.90
4461;DHT22;2243;48.812;9.232;2023-05-10T08:17:57;15.90;99.90
4461;DHT22;2243;48.812;9.232;2023-05-10T08:20:28;16.10;99.90
4461;DHT22;2243;48.812;9.232;2023-05-10T08:22:59;16.20;99.90
4461;DHT22;2243;48.812;9.232;2023-05-10T08:25:31;16.20;99.90
4461;DHT22;2243;48.812;9.232;2023-05-10T08:28:02;16.20;99.90
4461;DHT22;2243;48.812;9.232;2023-05-10T08:30:33;16.20;99.90
4461;DHT22;2243;48.812;9.232;2023-05-10T08:33:04;16.20;99.90
4461;DHT22;2243;48.812;9.232;2023-05-10T08:35:35;16.30;99.90
4461;DHT22;2243;48.812;9.232;2023-05-10T08:38:06;16.20;99.90
4461;DHT22;2243;48.812;9.232;2023-05-10T08:40:37;16.30;99.90
4461;DHT22;2243;48.812;9.232;2023-05-10T08:43:10;16.30;99.90
4461;DHT22;2243;48.812;9.232;2023-05-10T08:45:44;16.30;99.90
4461;DHT22;2243;48.812;9.232;2023-05-10T08:48:17;16.30;99.90
4461;DHT22;2243;48.812;9.232;2023-05-10T08:50:52;16.20;99.90
4461;DHT22;2243;48.812;9.232;2023-05-10T08:53:24;16.20;99.90
4461;DHT22;2243;48.812;9.232;2023-05-10T08:55:58;16.10;99.90
4461;DHT22;2243;48.812;9.232;2023-05-10T08:58:29;16.20;99.90
4461;DHT22;2243;48.812;9.232;2023-05-10T09:01:00;16.30;99.90
4461;DHT22;2243;48.812;9.232;2023-05-10T09:03:31;16.30;99.90
4461;DHT22;2243;48.812;9.232;2023-05-10T09:06:03;16.30;99.90
4461;DHT22;2243;48.812;9.232;2023-05-10T09:08:34;16.40;99.90
4461;DHT22;2243;48.812;9.232;2023-05-10T09:11:07;16.60;99.90
4461;DHT22;2243;48.812;9.232;2023-05-10T09:13:39;16.70;99.90
4461;DHT22;2243;48.812;9.232;2023-05-10T09:16:11;16.90;99.90
4461;DHT22;2243;48.812;9.232;2023-05-10T09:18:51;16.80;99.90
4461;DHT22;2243;48.812;9.232;2023-05-10T09:21:22;16.70;99.90
4461;DHT22;2243;48.812;9.232;2023-05-10T09:23:53;16.50;99.90
4461;DHT22;2243;48.812;9.232;2023-05-10T09:26:24;16.50;99.90
4461;DHT22;2243;48.812;9.232;2023-05-10T09:28:58;16.50;99.90
4461;DHT22;2243;48.812;9.232;2023-05-10T09:31:50;16.50;99.90
4461;DHT22;2243;48.812;9.232;2023-05-10T09:34:29;16.50;99.90
4461;DHT22;2243;48.812;9.232;2023-05-10T09:37:02;16.60;99.90
4461;DHT22;2243;48.812;9.232;2023-05-10T09:39:36;16.50;99.90
4461;DHT22;2243;48.812;9.232;2023-05-10T09:42:09;16.50;99.90
4461;DHT22;2243;48.812;9.232;2023-05-10T09:44:40;16.60;99.90
4461;DHT22;2243;48.812;9.232;2023-05-10T09:47:17;16.60;99.90
4461;DHT22;2243;48.812;9.232;2023-05-10T09:49:50;16.60;99.90
4461;DHT22;2243;48.812;9.232;2023-05-10T09:52:23;16.60;99.90
4461;DHT22;2243;48.812;9.232;2023-05-10T09:54:54;16.60;99.90
4461;DHT22;2243;48.812;9.232;2023-05-10T09:57:25;16.60;99.90
4461;DHT22;2243;48.812;9.232;2023-05-10T09:59:57;16.70;99.90
4461;DHT22;2243;48.812;9.232;2023-05-10T10:02:31;16.70;99.90
4461;DHT22;2243;48.812;9.232;2023-05-10T10:05:02;16.70;99.90
4461;DHT22;2243;48.812;9.232;2023-05-10T10:07:34;16.60;99.90
4461;DHT22;2243;48.812;9.232;2023-05-10T10:10:07;16.70;99.90
4461;DHT22;2243;48.812;9.232;2023-05-10T10:12:42;16.80;99.90
4461;DHT22;2243;48.812;9.232;2023-05-10T10:15:13;16.90;99.90
4461;DHT22;2243;48.812;9.232;2023-05-10T10:17:46;16.90;99.90
4461;DHT22;2243;48.812;9.232;2023-05-10T10:20:20;16.90;99.90
4461;DHT22;2243;48.812;9.232;2023-05-10T10:22:52;17.10;99.90
4461;DHT22;2243;48.812;9.232;2023-05-10T10:25:23;17.00;99.90
4461;DHT22;2243;48.812;9.232;2023-05-10T10:28:24;16.90;99.90
4461;DHT22;2243;48.812;9.232;2023-05-10T10:31:44;16.80;99.90
4461;DHT22;2243;48.812;9.232;2023-05-10T10:34:40;16.60;99.90
4461;DHT22;2243;48.812;9.232;2023-05-10T10:37:11;16.60;99.90
4461;DHT22;2243;48.812;9.232;2023-05-10T10:39:42;16.60;99.90
4461;DHT22;2243;48.812;9.232;2023-05-10T10:42:13;16.70;99.90
4461;DHT22;2243;48.812;9.232;2023-05-10T10:44:44;16.90;99.90
4461;DHT22;2243;48.812;9.232;2023-05-10T10:50:04;17.30;99.90
4461;DHT22;2243;48.812;9.232;2023-05-10T10:52:37;17.20;99.90
4461;DHT22;2243;48.812;9.232;2023-05-10T10:55:14;17.10;99.90
4461;DHT22;2243;48.812;9.232;2023-05-10T10:57:51;17.20;99.90
4461;DHT22;2243;48.812;9.232;2023-05-10T11:00:33;17.10;99.90
4461;DHT22;2243;48.812;9.232;2023-05-10T11:03:10;17.10;99.90
4461;DHT22;2243;48.812;9.232;2023-05-10T11:05:46;17.10;99.90
4461;DHT22;2243;48.812;9.232;2023-05-10T11:08:32;17.00;99.90
4461;DHT22;2243;48.812;9.232;2023-05-10T11:11:14;17.00;99.90
4461;DHT22;2243;48.812;9.232;2023-05-10T11:13:46;17.10;99.90
4461;DHT22;2243;48.812;9.232;2023-05-10T11:16:22;17.00;99.90
4461;DHT22;2243;48.812;9.232;2023-05-10T11:19:06;17.20;99.90
4461;DHT22;2243;48.812;9.232;2023-05-10T11:21:50;17.10;99.90
4461;DHT22;2243;48.812;9.232;2023-05-10T11:24:25;17.00;99.90
4461;DHT22;2243;48.812;9.232;2023-05-10T11:26:57;16.90;99.90
4461;DHT22;2243;48.812;9.232;2023-05-10T11:29:28;17.00;99.90
4461;DHT22;2243;48.812;9.232;2023-05-10T11:32:00;16.90;99.90
4461;DHT22;2243;48.812;9.232;2023-05-10T11:34:31;16.90;99.90
4461;DHT22;2243;48.812;9.232;2023-05-10T11:37:05;16.80;99.90
4461;DHT22;2243;48.812;9.232;2023-05-10T11:39:36;16.70;99.90
4461;DHT22;2243;48.812;9.232;2023-05-10T11:42:07;16.50;99.90
4461;DHT22;2243;48.812;9.232;2023-05-10T11:44:40;16.60;99.90
4461;DHT22;2243;48.812;9.232;2023-05-10T11:47:12;16.70;99.90
4461;DHT22;2243;48.812;9.232;2023-05-10T11:49:47;16.80;99.90
4461;DHT22;2243;48.812;9.232;2023-05-10T11:52:18;16.80;99.90
4461;DHT22;2243;48.812;9.232;2023-05-10T11:54:54;16.90;99.90
4461;DHT22;2243;48.812;9.232;2023-05-10T11:57:26;16.80;99.90
4461;DHT22;2243;48.812;9.232;2023-05-10T11:59:59;16.90;99.90
4461;DHT22;2243;48.812;9.232;2023-05-10T12:02:30;16.90;99.90
4461;DHT22;2243;48.812;9.232;2023-05-10T12:05:02;16.90;99.90
4461;DHT22;2243;48.812;9.232;2023-05-10T12:07:35;16.80;99.90
4461;DHT22;2243;48.812;9.232;2023-05-10T12:15:23;16.60;99.90
4461;DHT22;2243;48.812;9.232;2023-05-10T12:17:56;16.60;99.90
4461;DHT22;2243;48.812;9.232;2023-05-10T12:20:27;16.50;99.90
4461;DHT22;2243;48.812;9.232;2023-05-10T12:22:59;16.40;99.90
4461;DHT22;2243;48.812;9.232;2023-05-10T12:25:34;16.30;99.90
4461;DHT22;2243;48.812;9.232;2023-05-10T12:28:08;16.40;99.90
4461;DHT22;2243;48.812;9.232;2023-05-10T12:30:39;16.40;99.90
4461;DHT22;2243;48.812;9.232;2023-05-10T12:33:12;16.40;99.90
4461;DHT22;2243;48.812;9.232;2023-05-10T12:35:50;16.50;99.90
4461;DHT22;2243;48.812;9.232;2023-05-10T12:38:37;16.50;99.90
4461;DHT22;2243;48.812;9.232;2023-05-10T12:41:16;16.40;99.90
4461;DHT22;2243;48.812;9.232;2023-05-10T12:43:47;16.50;99.90
4461;DHT22;2243;48.812;9.232;2023-05-10T12:46:18;16.60;99.90
4461;DHT22;2243;48.812;9.232;2023-05-10T12:48:50;16.70;99.90
4461;DHT22;2243;48.812;9.232;2023-05-10T12:51:38;16.70;99.90
4461;DHT22;2243;48.812;9.232;2023-05-10T12:54:09;16.80;99.90
4461;DHT22;2243;48.812;9.232;2023-05-10T12:56:40;16.90;99.90
4461;DHT22;2243;48.812;9.232;2023-05-10T12:59:13;16.90;99.90
4461;DHT22;2243;48.812;9.232;2023-05-10T13:01:44;16.90;99.90
4461;DHT22;2243;48.812;9.232;2023-05-10T13:04:15;17.00;99.90
4461;DHT22;2243;48.812;9.232;2023-05-10T13:06:46;16.90;99.90
4461;DHT22;2243;48.812;9.232;2023-05-10T13:09:16;16.90;99.90
4461;DHT22;2243;48.812;9.232;2023-05-10T13:11:48;16.90;99.90
4461;DHT22;2243;48.812;9.232;2023-05-10T13:14:19;17.00;99.90
4461;DHT22;2243;48.812;9.232;2023-05-10T13:16:53;17.10;99.90
4461;DHT22;2243;48.812;9.232;2023-05-10T13:19:25;17.20;99.90
4461;DHT22;2243;48.812;9.232;2023-05-10T13:21:56;17.10;99.90
4461;DHT22;2243;48.812;9.232;2023-05-10T13:24:27;17.00;99.90
4461;DHT22;2243;48.812;9.232;2023-05-10T13:26:58;17.10;99.90
4461;DHT22;2243;48.812;9.232;2023-05-10T13:29:29;17.10;99.90
4461;DHT22;2243;48.812;9.232;2023-05-10T13:32:00;17.20;99.90
4461;DHT22;2243;48.812;9.232;2023-05-10T13:34:31;17.20;99.90
4461;DHT22;2243;48.812;9.232;2023-05-10T13:37:02;17.20;99.90
4461;DHT22;2243;48.812;9.232;2023-05-10T13:39:33;17.20;99.90
4461;DHT22;2243;48.812;9.232;2023-05-10T13:42:05;17.10;99.90
4461;DHT22;2243;48.812;9.232;2023-05-10T13:44:36;17.20;99.90
4461;DHT22;2243;48.812;9.232;2023-05-10T13:47:07;17.20;99.90
4461;DHT22;2243;48.812;9.232;2023-05-10T13:49:38;17.20;99.90
4461;DHT22;2243;48.812;9.232;2023-05-10T13:52:09;17.20;99.90
4461;DHT22;2243;48.812;9.232;2023-05-10T13:54:40;17.20;99.90
4461;DHT22;2243;48.812;9.232;2023-05-10T13:57:11;17.20;99.90
4461;DHT22;2243;48.812;9.232;2023-05-10T13:59:44;17.30;99.90
4461;DHT22;2243;48.812;9.232;2023-05-10T14:02:15;17.30;99.90
4461;DHT22;2243;48.812;9.232;2023-05-10T14:04:46;17.30;99.90
4461;DHT22;2243;48.812;9.232;2023-05-10T14:07:17;17.20;99.90
4461;DHT22;2243;48.812;9.232;2023-05-10T14:09:48;17.20;99.70
4461;DHT22;2243;48.812;9.232;2023-05-10T14:12:19;17.30;99.50
4461;DHT22;2243;48.812;9.232;2023-05-10T14:14:50;17.30;99.50
4461;DHT22;2243;48.812;9.232;2023-05-10T14:17:21;17.30;99.60
4461;DHT22;2243;48.812;9.232;2023-05-10T14:19:52;17.30;99.20
4461;DHT22;2243;48.812;9.232;2023-05-10T14:22:24;17.30;99.10
4461;DHT22;2243;48.812;9.232;2023-05-10T14:24:55;17.40;99.30
4461;DHT22;2243;48.812;9.232;2023-05-10T14:27:26;17.60;99.20
4461;DHT22;2243;48.812;9.232;2023-05-10T14:29:57;17.60;99.40
4461;DHT22;2243;48.812;9.232;2023-05-10T14:32:28;17.70;98.80
4461;DHT22;2243;48.812;9.232;2023-05-10T14:34:59;17.70;98.80
4461;DHT22;2243;48.812;9.232;2023-05-10T14:37:30;17.70;98.80
4461;DHT22;2243;48.812;9.232;2023-05-10T14:40:01;17.70;97.20
4461;DHT22;2243;48.812;9.232;2023-05-10T14:42:33;17.50;96.70
4461;DHT22;2243;48.812;9.232;2023-05-10T14:45:04;17.40;96.70
4461;DHT22;2243;48.812;9.232;2023-05-10T14:47:35;17.40;97.10
4461;DHT22;2243;48.812;9.232;2023-05-10T14:50:07;17.30;97.60
4461;DHT22;2243;48.812;9.232;2023-05-10T14:52:38;17.30;97.40
4461;DHT22;2243;48.812;9.232;2023-05-10T14:55:09;17.40;97.70
4461;DHT22;2243;48.812;9.232;2023-05-10T14:57:40;17.50;97.90
4461;DHT22;2243;48.812;9.232;2023-05-10T15:00:12;17.50;97.50
4461;DHT22;2243;48.812;9.232;2023-05-10T15:02:46;17.50;97.30
4461;DHT22;2243;48.812;9.232;2023-05-10T15:05:19;17.40;97.30
4461;DHT22;2243;48.812;9.232;2023-05-10T15:07:50;17.40;97.30
4461;DHT22;2243;48.812;9.232;2023-05-10T15:10:21;17.40;97.60
4461;DHT22;2243;48.812;9.232;2023-05-10T15:12:52;17.40;97.20
4461;DHT22;2243;48.812;9.232;2023-05-10T15:15:23;17.40;97.40
4461;DHT22;2243;48.812;9.232;2023-05-10T15:17:54;17.50;97.40
4461;DHT22;2243;48.812;9.232;2023-05-10T15:20:25;17.40;97.70
4461;DHT22;2243;48.812;9.232;2023-05-10T15:22:56;17.50;97.90
4461;DHT22;2243;48.812;9.232;2023-05-10T15:25:27;17.60;97.80
4461;DHT22;2243;48.812;9.232;2023-05-10T15:27:59;17.60;97.60
4461;DHT22;2243;48.812;9.232;2023-05-10T15:30:30;17.70;98.00
4461;DHT22;2243;48.812;9.232;2023-05-10T15:33:01;17.80;98.20
4461;DHT22;2243;48.812;9.232;2023-05-10T15:35:33;17.80;98.40
4461;DHT22;2243;48.812;9.232;2023-05-10T15:38:06;17.90;98.30
4461;DHT22;2243;48.812;9.232;2023-05-10T15:40:37;18.10;98.40
4461;DHT22;2243;48.812;9.232;2023-05-10T15:43:08;18.00;98.20
4461;DHT22;2243;48.812;9.232;2023-05-10T15:45:39;17.90;98.20
4461;DHT22;2243;48.812;9.232;2023-05-10T15:48:10;17.90;98.60
4461;DHT22;2243;48.812;9.232;2023-05-10T15:50:41;18.00;98.50
4461;DHT22;2243;48.812;9.232;2023-05-10T15:53:12;18.10;98.30
4461;DHT22;2243;48.812;9.232;2023-05-10T15:55:43;18.10;98.70
4461;DHT22;2243;48.812;9.232;2023-05-10T15:58:14;17.90;98.80
4461;DHT22;2243;48.812;9.232;2023-05-10T16:00:46;17.90;98.70
4461;DHT22;2243;48.812;9.232;2023-05-10T16:03:17;18.00;98.10
4461;DHT22;2243;48.812;9.232;2023-05-10T16:05:48;18.10;98.10
4461;DHT22;2243;48.812;9.232;2023-05-10T16:08:19;18.00;98.20
4461;DHT22;2243;48.812;9.232;2023-05-10T16:10:51;17.90;99.20
4461;DHT22;2243;48.812;9.232;2023-05-10T16:13:22;18.00;99.30
4461;DHT22;2243;48.812;9.232;2023-05-10T16:15:53;17.90;99.40
4461;DHT22;2243;48.812;9.232;2023-05-10T16:18:24;17.90;99.90
4461;DHT22;2243;48.812;9.232;2023-05-10T16:20:56;17.90;99.90
4461;DHT22;2243;48.812;9.232;2023-05-10T16:23:28;17.80;99.90
4461;DHT22;2243;48.812;9.232;2023-05-10T16:26:00;17.80;99.90
4461;DHT22;2243;48.812;9.232;2023-05-10T16:28:31;17.80;99.90
4461;DHT22;2243;48.812;9.232;2023-05-10T16:31:02;17.80;99.90
4461;DHT22;2243;48.812;9.232;2023-05-10T16:33:33;17.80;99.90
4461;DHT22;2243;48.812;9.232;2023-05-10T16:36:04;17.90;99.90
4461;DHT22;2243;48.812;9.232;2023-05-10T16:38:36;18.00;99.00
4461;DHT22;2243;48.812;9.232;2023-05-10T16:41:07;18.10;98.90
4461;DHT22;2243;48.812;9.232;2023-05-10T16:43:38;18.10;98.60
4461;DHT22;2243;48.812;9.232;2023-05-10T16:46:10;17.90;99.70
4461;DHT22;2243;48.812;9.232;2023-05-10T16:48:41;17.90;98.90
4461;DHT22;2243;48.812;9.232;2023-05-10T16:51:12;17.90;98.80
4461;DHT22;2243;48.812;9.232;2023-05-10T16:53:43;17.90;99.00
4461;DHT22;2243;48.812;9.232;2023-05-10T16:56:14;17.90;98.40
4461;DHT22;2243;48.812;9.232;2023-05-10T16:58:48;17.90;98.10
4461;DHT22;2243;48.812;9.232;2023-05-10T17:01:19;17.80;98.70
4461;DHT22;2243;48.812;9.232;2023-05-10T17:03:52;17.80;98.50
4461;DHT22;2243;48.812;9.232;2023-05-10T17:06:26;17.80;98.00